createdAt,value
2023-05-06T00:03:00.333Z,101766.50
2023-05-06T00:05:47.666Z,101764.45
2023-05-06T00:08:34.274Z,101760.23
2023-05-06T00:11:21.092Z,101760.64
2023-05-06T00:14:07.339Z,101757.80
2023-05-06T00:16:54.446Z,101756.55
2023-05-06T00:19:40.803Z,101753.34
2023-05-06T00:22:27.283Z,101757.48
2023-05-06T00:25:13.918Z,101755.21
2023-05-06T00:28:00.956Z,101753.48
2023-05-06T00:30:47.495Z,101760.16
2023-05-06T00:33:34.145Z,101750.60
2023-05-06T00:36:20.607Z,101757.12
2023-05-06T00:39:07.200Z,101760.04
2023-05-06T00:41:54.633Z,101759.52
2023-05-06T00:44:41.325Z,101749.57
2023-05-06T00:47:27.966Z,101754.77
2023-05-06T00:50:14.743Z,101751.87
2023-05-06T00:53:04.160Z,101761.27
2023-05-06T00:55:51.807Z,101763.15
2023-05-06T00:58:38.964Z,101763.08
2023-05-06T01:01:27.226Z,101764.62
2023-05-06T01:04:13.900Z,101759.58
2023-05-06T01:07:09.665Z,101762.79
2023-05-06T01:10:06.894Z,101747.64
2023-05-06T01:13:05.748Z,101747.51
2023-05-06T01:15:54.867Z,101746.48
2023-05-06T01:18:44.440Z,101745.77
2023-05-06T01:21:35.004Z,101746.63
2023-05-06T01:24:21.801Z,101746.90
2023-05-06T01:27:10.521Z,101740.39
2023-05-06T01:29:59.287Z,101746.89
2023-05-06T01:33:19.069Z,101744.46
2023-05-06T01:36:37.647Z,101744.37
2023-05-06T01:39:31.113Z,101746.44
2023-05-06T01:42:18.308Z,101737.63
2023-05-06T01:45:07.109Z,101733.10
2023-05-06T01:47:54.144Z,101726.72
2023-05-06T01:50:41.740Z,101722.50
2023-05-06T01:53:28.005Z,101716.35
2023-05-06T01:56:14.589Z,101716.70
2023-05-06T01:59:01.072Z,101718.45
2023-05-06T02:01:47.536Z,101722.11
2023-05-06T02:04:34.194Z,101721.55
2023-05-06T02:07:21.182Z,101720.55
2023-05-06T02:10:08.990Z,101711.37
2023-05-06T02:12:57.675Z,101711.34
2023-05-06T02:15:44.588Z,101706.80
2023-05-06T02:18:35.425Z,101708.85
2023-05-06T02:21:21.982Z,101707.81
2023-05-06T02:24:08.482Z,101709.22
2023-05-06T02:26:54.739Z,101711.41
2023-05-06T02:29:41.075Z,101711.64
2023-05-06T02:32:27.773Z,101717.80
2023-05-06T02:35:14.501Z,101713.59
2023-05-06T02:38:03.358Z,101709.21
2023-05-06T02:40:50.158Z,101710.27
2023-05-06T02:43:36.804Z,101707.29
2023-05-06T02:46:25.013Z,101700.29
2023-05-06T02:49:12.052Z,101705.05
2023-05-06T02:51:58.984Z,101699.09
2023-05-06T02:54:45.358Z,101699.23
2023-05-06T02:57:31.916Z,101701.18
2023-05-06T03:00:19.072Z,101706.40
2023-05-06T03:03:05.767Z,101708.46
2023-05-06T03:05:52.225Z,101700.03
2023-05-06T03:08:39.314Z,101700.79
2023-05-06T03:11:26.919Z,101697.05
2023-05-06T03:14:13.672Z,101694.70
2023-05-06T03:17:00.476Z,101692.92
2023-05-06T03:19:46.803Z,101687.30
2023-05-06T03:22:33.598Z,101689.27
2023-05-06T03:25:20.189Z,101691.03
2023-05-06T03:28:07.176Z,101693.27
2023-05-06T03:30:53.903Z,101694.31
2023-05-06T03:33:41.067Z,101693.14
2023-05-06T03:36:29.615Z,101693.41
2023-05-06T03:39:15.982Z,101689.02
2023-05-06T03:42:02.679Z,101696.30
2023-05-06T03:44:49.574Z,101697.22
2023-05-06T03:47:37.152Z,101693.38
2023-05-06T03:50:23.906Z,101690.14
2023-05-06T03:53:11.896Z,101691.30
2023-05-06T03:55:59.224Z,101690.25
2023-05-06T03:58:46.321Z,101690.48
2023-05-06T04:01:33.664Z,101696.92
2023-05-06T04:04:20.240Z,101693.38
2023-05-06T04:07:06.752Z,101686.35
2023-05-06T04:09:53.189Z,101691.46
2023-05-06T04:12:40.358Z,101692.66
2023-05-06T04:15:26.764Z,101682.23
2023-05-06T04:18:18.960Z,101695.10
2023-05-06T04:21:12.237Z,101696.95
2023-05-06T04:23:59.690Z,101697.29
2023-05-06T04:26:52.023Z,101691.30
2023-05-06T04:29:39.128Z,101689.52
2023-05-06T04:32:25.717Z,101688.92
2023-05-06T04:35:13.583Z,101685.86
2023-05-06T04:38:00.174Z,101683.38
2023-05-06T04:40:50.103Z,101678.85
2023-05-06T04:43:36.811Z,101674.10
2023-05-06T04:46:28.158Z,101677.46
2023-05-06T04:49:14.739Z,101673.16
2023-05-06T04:52:01.978Z,101675.55
2023-05-06T04:54:48.585Z,101675.99
2023-05-06T04:57:35.648Z,101677.19
2023-05-06T05:00:22.932Z,101672.73
2023-05-06T05:03:09.838Z,101668.42
2023-05-06T05:05:57.900Z,101659.55
2023-05-06T05:08:46.330Z,101651.00
2023-05-06T05:11:33.149Z,101653.80
2023-05-06T05:14:19.736Z,101653.95
2023-05-06T05:17:06.614Z,101656.11
2023-05-06T05:19:53.951Z,101644.19
2023-05-06T05:22:40.980Z,101651.95
2023-05-06T05:25:27.548Z,101655.02
2023-05-06T05:28:14.115Z,101654.88
2023-05-06T05:31:04.261Z,101655.35
2023-05-06T05:33:52.882Z,101658.63
2023-05-06T05:36:41.431Z,101658.55
2023-05-06T05:39:29.016Z,101656.52
2023-05-06T05:42:17.173Z,101659.46
2023-05-06T05:45:04.370Z,101657.08
2023-05-06T05:47:51.054Z,101657.92
2023-05-06T05:50:38.024Z,101656.89
2023-05-06T05:53:25.128Z,101649.27
2023-05-06T05:56:11.881Z,101648.52
2023-05-06T05:58:58.953Z,101642.45
2023-05-06T06:01:45.606Z,101640.27
2023-05-06T06:04:32.185Z,101635.52
2023-05-06T06:07:19.222Z,101637.33
2023-05-06T06:10:07.529Z,101634.71
2023-05-06T06:12:54.342Z,101639.23
2023-05-06T06:15:42.519Z,101641.28
2023-05-06T06:18:29.234Z,101643.32
2023-05-06T06:21:15.937Z,101645.84
2023-05-06T06:24:02.520Z,101652.56
2023-05-06T06:26:49.777Z,101653.19
2023-05-06T06:29:36.151Z,101661.14
2023-05-06T06:32:22.586Z,101667.95
2023-05-06T06:35:09.275Z,101667.15
2023-05-06T06:37:56.205Z,101664.42
2023-05-06T06:40:42.690Z,101665.14
2023-05-06T06:43:29.577Z,101671.05
2023-05-06T06:46:21.537Z,101670.79
2023-05-06T06:49:08.251Z,101660.48
2023-05-06T06:51:57.464Z,101669.80
2023-05-06T06:54:44.027Z,101669.70
2023-05-06T06:57:30.693Z,101669.43
2023-05-06T07:00:17.324Z,101670.90
2023-05-06T07:03:03.890Z,101672.80
2023-05-06T07:05:50.544Z,101673.38
2023-05-06T07:08:37.095Z,101672.41
2023-05-06T07:11:23.928Z,101672.23
2023-05-06T07:14:11.711Z,101669.67
2023-05-06T07:16:58.095Z,101669.70
2023-05-06T07:19:44.374Z,101670.08
2023-05-06T07:22:31.036Z,101671.56
2023-05-06T07:25:17.634Z,101664.40
2023-05-06T07:28:04.405Z,101664.08
2023-05-06T07:30:52.112Z,101655.45
2023-05-06T07:33:38.602Z,101654.59
2023-05-06T07:36:27.035Z,101650.21
2023-05-06T07:39:14.085Z,101648.34
2023-05-06T07:42:01.908Z,101647.88
2023-05-06T07:44:48.307Z,101650.35
2023-05-06T07:47:35.662Z,101648.29
2023-05-06T07:50:22.565Z,101649.59
2023-05-06T07:53:09.189Z,101648.30
2023-05-06T07:56:02.052Z,101646.87
2023-05-06T07:58:49.441Z,101640.66
2023-05-06T08:01:36.172Z,101648.34
2023-05-06T08:04:23.162Z,101644.80
2023-05-06T08:07:10.617Z,101640.60
2023-05-06T08:09:57.166Z,101638.98
2023-05-06T08:12:43.737Z,101635.08
2023-05-06T08:15:30.307Z,101640.59
2023-05-06T08:18:22.324Z,101643.26
2023-05-06T08:21:09.797Z,101641.73
2023-05-06T08:23:56.400Z,101646.48
2023-05-06T08:26:42.733Z,101645.91
2023-05-06T08:29:29.255Z,101644.05
2023-05-06T08:32:15.835Z,101648.36
2023-05-06T08:35:02.404Z,101652.33
2023-05-06T08:37:49.011Z,101653.81
2023-05-06T08:40:44.640Z,101652.59
2023-05-06T08:43:33.623Z,101659.51
2023-05-06T08:46:20.160Z,101656.88
2023-05-06T08:49:06.556Z,101662.05
2023-05-06T08:51:53.112Z,101664.62
2023-05-06T08:54:41.463Z,101667.73
2023-05-06T08:57:30.578Z,101674.63
2023-05-06T09:00:17.588Z,101680.30
2023-05-06T09:03:04.072Z,101680.36
2023-05-06T09:05:50.893Z,101689.07
2023-05-06T09:08:37.429Z,101688.58
2023-05-06T09:11:26.477Z,101698.81
2023-05-06T09:14:17.764Z,101701.50
2023-05-06T09:17:04.263Z,101701.30
2023-05-06T09:19:57.216Z,101704.38
2023-05-06T09:22:43.687Z,101701.48
2023-05-06T09:25:30.494Z,101695.59
2023-05-06T09:28:16.978Z,101687.23
2023-05-06T09:31:03.849Z,101686.07
2023-05-06T09:33:51.186Z,101693.04
2023-05-06T09:36:38.016Z,101690.47
2023-05-06T09:39:27.784Z,101690.97
2023-05-06T09:42:14.482Z,101689.80
2023-05-06T09:45:07.539Z,101686.61
2023-05-06T09:47:54.902Z,101682.96
2023-05-06T09:50:43.670Z,101682.77
2023-05-06T09:53:32.749Z,101682.15
2023-05-06T09:56:21.521Z,101679.38
2023-05-06T09:59:08.366Z,101679.02
2023-05-06T10:01:55.615Z,101679.02
2023-05-06T10:04:43.076Z,101676.96
2023-05-06T10:07:30.698Z,101674.92
2023-05-06T10:10:18.215Z,101670.91
2023-05-06T10:13:04.640Z,101671.61
2023-05-06T10:15:52.103Z,101665.24
2023-05-06T10:18:39.918Z,101666.31
2023-05-06T10:21:32.423Z,101660.16
2023-05-06T10:24:26.280Z,101655.80
2023-05-06T10:27:14.102Z,101646.41
2023-05-06T10:30:01.126Z,101653.36
2023-05-06T10:32:48.253Z,101657.28
2023-05-06T10:35:44.289Z,101657.08
2023-05-06T10:38:35.890Z,101658.42
2023-05-06T10:41:24.117Z,101654.06
2023-05-06T10:44:10.900Z,101656.06
2023-05-06T10:47:00.575Z,101646.96
2023-05-06T10:50:20.055Z,101649.98
2023-05-06T10:53:06.596Z,101642.40
2023-05-06T10:56:09.057Z,101636.63
2023-05-06T10:58:56.729Z,101636.60
2023-05-06T11:01:44.521Z,101634.83
2023-05-06T11:04:31.675Z,101634.90
2023-05-06T11:07:23.341Z,101633.80
2023-05-06T11:10:12.037Z,101633.48
2023-05-06T11:12:59.086Z,101631.82
2023-05-06T11:15:50.864Z,101630.33
2023-05-06T11:18:40.102Z,101631.62
2023-05-06T11:21:32.951Z,101631.16
2023-05-06T11:24:43.901Z,101636.28
2023-05-06T11:27:30.845Z,101631.58
2023-05-06T11:30:17.429Z,101627.92
2023-05-06T11:33:05.737Z,101629.17
2023-05-06T11:35:53.224Z,101628.21
2023-05-06T11:38:51.469Z,101628.09
2023-05-06T11:41:41.398Z,101631.74
2023-05-06T11:44:30.899Z,101633.48
2023-05-06T11:47:17.166Z,101631.27
2023-05-06T11:50:07.486Z,101630.55
2023-05-06T11:52:54.074Z,101634.66
2023-05-06T11:55:41.600Z,101635.59
2023-05-06T11:58:29.327Z,101635.67
2023-05-06T12:01:15.581Z,101634.63
2023-05-06T12:04:02.328Z,101637.30
2023-05-06T12:06:50.178Z,101638.84
2023-05-06T12:09:45.699Z,101648.48
2023-05-06T12:12:33.436Z,101653.07
2023-05-06T12:15:20.287Z,101653.50
2023-05-06T12:18:07.153Z,101655.86
2023-05-06T12:20:54.876Z,101652.20
2023-05-06T12:23:52.562Z,101657.42
2023-05-06T12:26:44.472Z,101657.02
2023-05-06T12:29:32.438Z,101663.63
2023-05-06T12:32:18.858Z,101649.83
2023-05-06T12:35:07.504Z,101659.17
2023-05-06T12:37:54.428Z,101660.08
2023-05-06T12:40:42.235Z,101657.11
2023-05-06T12:43:33.218Z,101654.38
2023-05-06T12:46:19.970Z,101654.92
2023-05-06T12:49:06.667Z,101658.39
2023-05-06T12:52:06.941Z,101659.42
2023-05-06T12:54:53.377Z,101658.77
2023-05-06T12:57:39.668Z,101659.17
2023-05-06T13:00:25.732Z,101657.91
2023-05-06T13:03:15.310Z,101659.98
2023-05-06T13:06:01.970Z,101659.22
2023-05-06T13:08:48.151Z,101658.86
2023-05-06T13:11:35.372Z,101661.55
2023-05-06T13:14:22.654Z,101662.01
2023-05-06T13:17:09.435Z,101663.08
2023-05-06T13:19:57.184Z,101667.20
2023-05-06T13:22:54.337Z,101669.86
2023-05-06T13:25:55.873Z,101666.70
2023-05-06T13:28:47.631Z,101668.47
2023-05-06T13:31:34.980Z,101666.04
2023-05-06T13:34:21.808Z,101663.74
2023-05-06T13:37:08.084Z,101665.22
2023-05-06T13:39:54.512Z,101665.17
2023-05-06T13:42:41.127Z,101661.98
2023-05-06T13:45:27.509Z,101664.30
2023-05-06T13:48:14.512Z,101664.92
2023-05-06T13:51:01.083Z,101667.47
2023-05-06T13:53:47.979Z,101667.53
2023-05-06T13:56:35.051Z,101659.23
2023-05-06T13:59:21.931Z,101663.69
2023-05-06T14:02:09.807Z,101662.70
2023-05-06T14:04:56.660Z,101658.69
2023-05-06T14:07:43.198Z,101658.75
2023-05-06T14:10:29.810Z,101663.58
2023-05-06T14:13:16.170Z,101661.39
2023-05-06T14:16:02.913Z,101663.85
2023-05-06T14:18:49.255Z,101659.31
2023-05-06T14:21:35.825Z,101660.02
2023-05-06T14:24:22.165Z,101660.51
2023-05-06T14:27:08.708Z,101659.45
2023-05-06T14:29:55.134Z,101661.63
2023-05-06T14:32:41.589Z,101660.48
2023-05-06T14:35:28.131Z,101660.89
2023-05-06T14:38:14.747Z,101661.80
2023-05-06T14:41:01.154Z,101665.25
2023-05-06T14:43:48.043Z,101661.73
2023-05-06T14:46:34.714Z,101664.59
2023-05-06T14:49:21.260Z,101665.27
2023-05-06T14:52:07.816Z,101664.65
2023-05-06T14:54:54.436Z,101667.40
2023-05-06T14:57:40.777Z,101667.80
2023-05-06T15:00:27.804Z,101667.91
2023-05-06T15:03:14.416Z,101666.36
2023-05-06T15:06:00.928Z,101665.02
2023-05-06T15:08:47.622Z,101662.91
2023-05-06T15:11:34.053Z,101667.25
2023-05-06T15:14:20.733Z,101667.59
2023-05-06T15:17:07.588Z,101669.23
2023-05-06T15:19:54.500Z,101663.23
2023-05-06T15:22:40.963Z,101661.13
2023-05-06T15:25:34.813Z,101663.58
2023-05-06T15:28:24.237Z,101664.13
2023-05-06T15:31:11.116Z,101666.83
2023-05-06T15:34:00.356Z,101664.83
2023-05-06T15:36:52.762Z,101662.30
2023-05-06T15:39:39.280Z,101664.84
2023-05-06T15:42:25.872Z,101669.86
2023-05-06T15:45:12.664Z,101665.64
2023-05-06T15:47:59.044Z,101669.27
2023-05-06T15:50:45.867Z,101668.05
2023-05-06T15:53:32.320Z,101669.54
2023-05-06T15:56:19.333Z,101672.55
2023-05-06T15:59:08.119Z,101669.17
2023-05-06T16:04:44.972Z,101666.11
2023-05-06T16:07:32.257Z,101665.89
2023-05-06T16:10:18.634Z,101667.88
2023-05-06T16:13:05.301Z,101665.42
2023-05-06T16:15:52.725Z,101671.79
2023-05-06T16:18:39.169Z,101673.52
2023-05-06T16:21:25.347Z,101675.40
2023-05-06T16:24:11.596Z,101675.84
2023-05-06T16:26:58.034Z,101668.80
2023-05-06T16:29:44.683Z,101671.58
2023-05-06T16:32:31.490Z,101679.70
2023-05-06T16:35:18.385Z,101676.08
2023-05-06T16:38:04.966Z,101679.37
2023-05-06T16:40:51.663Z,101678.52
2023-05-06T16:43:38.125Z,101680.33
2023-05-06T16:46:24.792Z,101678.23
2023-05-06T16:49:11.645Z,101677.61
2023-05-06T16:51:58.437Z,101678.88
2023-05-06T16:54:45.090Z,101675.84
2023-05-06T16:57:31.461Z,101674.01
2023-05-06T17:00:18.234Z,101671.45
2023-05-06T17:03:04.943Z,101671.27
2023-05-06T17:05:51.636Z,101671.40
2023-05-06T17:08:37.840Z,101670.88
2023-05-06T17:11:24.741Z,101677.04
2023-05-06T17:14:11.630Z,101671.93
2023-05-06T17:17:02.220Z,101672.14
2023-05-06T17:19:48.665Z,101660.48
2023-05-06T17:22:35.844Z,101669.90
2023-05-06T17:25:23.350Z,101670.64
2023-05-06T17:28:09.538Z,101668.25
2023-05-06T17:30:56.194Z,101668.96
2023-05-06T17:33:44.232Z,101668.05
2023-05-06T17:36:31.321Z,101670.04
2023-05-06T17:39:17.788Z,101674.72
2023-05-06T17:42:04.274Z,101670.45
2023-05-06T17:44:50.562Z,101673.45
2023-05-06T17:47:37.003Z,101673.19
2023-05-06T17:50:23.823Z,101676.79
2023-05-06T17:53:10.610Z,101674.09
2023-05-06T17:55:57.039Z,101678.83
2023-05-06T17:58:43.522Z,101675.75
2023-05-06T18:01:29.774Z,101677.24
2023-05-06T18:04:16.348Z,101678.69
2023-05-06T18:07:02.893Z,101682.88
2023-05-06T18:09:52.055Z,101681.33
2023-05-06T18:12:38.718Z,101682.03
2023-05-06T18:15:25.726Z,101684.58
2023-05-06T18:18:12.419Z,101689.45
2023-05-06T18:20:58.707Z,101689.80
2023-05-06T18:23:45.278Z,101692.43
2023-05-06T18:26:43.331Z,101699.33
2023-05-06T18:29:33.237Z,101701.52
2023-05-06T18:32:20.006Z,101705.89
2023-05-06T18:35:06.891Z,101708.27
2023-05-06T18:37:53.583Z,101713.91
2023-05-06T18:40:39.804Z,101716.51
2023-05-06T18:43:26.526Z,101721.14
2023-05-06T18:46:12.718Z,101728.08
2023-05-06T18:49:00.828Z,101727.73
2023-05-06T18:51:47.135Z,101731.09
2023-05-06T18:54:33.742Z,101731.65
2023-05-06T18:57:20.356Z,101728.73
2023-05-06T19:00:08.909Z,101729.45
2023-05-06T19:02:55.463Z,101727.10
2023-05-06T19:05:41.974Z,101727.89
2023-05-06T19:08:29.476Z,101718.13
2023-05-06T19:11:18.215Z,101727.64
2023-05-06T19:14:04.661Z,101729.68
2023-05-06T19:16:51.498Z,101731.30
2023-05-06T19:19:37.870Z,101729.63
2023-05-06T19:22:24.197Z,101729.62
2023-05-06T19:25:11.200Z,101730.30
2023-05-06T19:27:58.456Z,101730.29
2023-05-06T19:30:45.663Z,101734.83
2023-05-06T19:33:32.439Z,101733.89
2023-05-06T19:36:18.757Z,101733.81
2023-05-06T19:39:05.781Z,101730.52
2023-05-06T19:41:53.900Z,101728.98
2023-05-06T19:44:42.765Z,101728.60
2023-05-06T19:47:29.702Z,101729.98
2023-05-06T19:50:16.266Z,101730.17
2023-05-06T19:53:03.466Z,101726.56
2023-05-06T19:55:50.104Z,101727.59
2023-05-06T19:58:36.600Z,101721.27
2023-05-06T20:01:24.396Z,101724.13
2023-05-06T20:04:10.997Z,101722.13
2023-05-06T20:06:57.940Z,101723.59
2023-05-06T20:09:44.604Z,101724.66
2023-05-06T20:12:30.997Z,101729.46
2023-05-06T20:15:17.625Z,101728.33
2023-05-06T20:18:04.689Z,101729.67
2023-05-06T20:20:51.276Z,101733.09
2023-05-06T20:23:37.884Z,101739.25
2023-05-06T20:26:25.030Z,101740.08
2023-05-06T20:29:11.490Z,101742.14
2023-05-06T20:31:58.887Z,101745.64
2023-05-06T20:34:45.558Z,101742.80
2023-05-06T20:37:35.325Z,101749.75
2023-05-06T20:40:21.904Z,101749.73
2023-05-06T20:43:08.760Z,101750.98
2023-05-06T20:45:55.982Z,101752.47
2023-05-06T20:48:43.154Z,101753.23
2023-05-06T20:51:29.521Z,101752.02
2023-05-06T20:54:16.238Z,101753.71
2023-05-06T20:57:02.740Z,101757.84
2023-05-06T20:59:52.781Z,101757.63
2023-05-06T21:02:41.263Z,101755.25
2023-05-06T21:05:28.297Z,101756.02
2023-05-06T21:08:15.069Z,101755.62
2023-05-06T21:11:01.568Z,101759.20
2023-05-06T21:13:49.512Z,101764.16
2023-05-06T21:16:39.797Z,101762.59
2023-05-06T21:19:26.856Z,101765.73
2023-05-06T21:22:13.300Z,101768.32
2023-05-06T21:25:00.055Z,101772.13
2023-05-06T21:27:47.054Z,101765.08
2023-05-06T21:30:35.263Z,101764.35
2023-05-06T21:33:21.640Z,101762.96
2023-05-06T21:36:08.242Z,101766.95
2023-05-06T21:39:06.574Z,101769.59
2023-05-06T21:41:53.120Z,101771.98
2023-05-06T21:44:39.565Z,101774.60
2023-05-06T21:47:25.963Z,101777.79
2023-05-06T21:50:12.628Z,101776.62
2023-05-06T21:52:58.981Z,101782.73
2023-05-06T21:55:45.594Z,101782.91
2023-05-06T21:58:32.463Z,101785.23
2023-05-06T22:01:19.209Z,101785.31
2023-05-06T22:04:11.503Z,101784.42
2023-05-06T22:06:58.487Z,101785.76
2023-05-06T22:09:45.405Z,101787.78
2023-05-06T22:12:32.541Z,101790.19
2023-05-06T22:15:19.522Z,101784.02
2023-05-06T22:18:07.261Z,101782.65
2023-05-06T22:20:56.799Z,101780.44
2023-05-06T22:23:43.368Z,101782.02
2023-05-06T22:26:32.880Z,101780.96
2023-05-06T22:29:19.148Z,101781.62
2023-05-06T22:32:06.409Z,101780.16
2023-05-06T22:34:52.776Z,101782.58
2023-05-06T22:37:39.182Z,101784.36
2023-05-06T22:40:27.766Z,101789.91
2023-05-06T22:43:13.959Z,101784.83
2023-05-06T22:46:00.751Z,101784.04
2023-05-06T22:48:47.615Z,101784.58
2023-05-06T22:51:35.081Z,101781.79
2023-05-06T22:54:22.340Z,101779.91
2023-05-06T22:57:09.003Z,101779.95
2023-05-06T22:59:55.497Z,101781.70
2023-05-06T23:02:41.774Z,101784.24
2023-05-06T23:05:28.389Z,101784.83
2023-05-06T23:08:15.494Z,101785.69
2023-05-06T23:11:02.068Z,101784.93
2023-05-06T23:13:48.712Z,101781.05
2023-05-06T23:16:35.241Z,101789.98
2023-05-06T23:19:21.872Z,101791.63
2023-05-06T23:22:08.402Z,101797.27
2023-05-06T23:24:55.874Z,101799.11
2023-05-06T23:27:43.325Z,101799.27
2023-05-06T23:30:30.310Z,101806.61
2023-05-06T23:33:17.223Z,101806.79
2023-05-06T23:36:03.871Z,101811.78
2023-05-06T23:38:50.131Z,101811.81
2023-05-06T23:41:36.552Z,101815.38
2023-05-06T23:44:23.090Z,101810.41
2023-05-06T23:47:09.354Z,101814.47
2023-05-06T23:49:55.795Z,101815.65
2023-05-06T23:52:42.272Z,101810.02
2023-05-06T23:55:29.301Z,101814.74
2023-05-06T23:58:15.733Z,101814.08
